createdAt,value
2018-12-18T07:41:41.575Z,23.80
2018-12-18T07:44:10.611Z,23.93
2018-12-18T07:46:38.839Z,23.80
2018-12-18T07:49:07.065Z,24.07
2018-12-18T07:51:39.052Z,22.90
2018-12-18T07:54:07.267Z,24.77
2018-12-18T07:56:35.503Z,25.13
2018-12-18T07:59:03.710Z,23.63
2018-12-18T08:01:32.026Z,22.43
2018-12-18T08:04:00.223Z,24.83
2018-12-18T08:06:28.459Z,22.70
2018-12-18T08:08:56.700Z,21.50
2018-12-18T08:11:24.928Z,23.17
2018-12-18T08:13:53.138Z,24.43
2018-12-18T08:16:21.373Z,23.77
2018-12-18T08:18:49.584Z,23.07
2018-12-18T08:21:18.081Z,23.50
2018-12-18T08:23:46.306Z,21.93
2018-12-18T08:26:14.512Z,23.47
2018-12-18T08:28:42.748Z,23.50
2018-12-18T08:31:10.964Z,24.53
2018-12-18T08:33:39.195Z,23.23
2018-12-18T08:36:07.484Z,22.90
2018-12-18T08:38:35.712Z,22.93
2018-12-18T08:41:04.080Z,24.37
2018-12-18T08:43:32.307Z,23.40
2018-12-18T08:46:00.599Z,22.03
2018-12-18T08:48:28.826Z,23.43
2018-12-18T08:50:57.088Z,24.17
2018-12-18T08:53:25.402Z,24.07
2018-12-18T08:55:53.691Z,23.10
2018-12-18T08:58:21.916Z,23.53
2018-12-18T09:00:50.135Z,23.20
2018-12-18T09:03:18.367Z,24.47
2018-12-18T09:05:46.578Z,23.23
2018-12-18T09:08:14.908Z,22.53
2018-12-18T09:10:43.199Z,23.67
2018-12-18T09:13:11.427Z,23.20
2018-12-18T09:15:44.983Z,24.33
2018-12-18T09:18:13.290Z,24.00
2018-12-18T09:20:41.504Z,24.33
2018-12-18T09:23:09.738Z,23.23
2018-12-18T09:25:37.957Z,24.50
2018-12-18T09:28:06.187Z,22.80
2018-12-18T09:30:35.581Z,23.33
2018-12-18T09:33:04.747Z,23.23
2018-12-18T09:35:33.043Z,22.87
2018-12-18T09:38:06.603Z,23.30
2018-12-18T09:41:40.456Z,23.07
2018-12-18T09:44:12.976Z,23.47
2018-12-18T09:46:41.182Z,24.13
2018-12-18T09:49:09.478Z,26.73
2018-12-18T09:51:37.765Z,26.53
2018-12-18T09:54:05.996Z,25.87
2018-12-18T09:56:38.454Z,26.13
2018-12-18T09:59:06.750Z,26.87
2018-12-18T10:01:34.957Z,27.20
2018-12-18T10:04:03.183Z,27.23
2018-12-18T10:06:31.471Z,26.03
2018-12-18T10:08:59.723Z,27.23
2018-12-18T10:11:27.932Z,27.83
2018-12-18T10:13:56.229Z,27.67
2018-12-18T10:16:24.507Z,27.07
2018-12-18T10:18:52.739Z,29.13
2018-12-18T10:21:20.946Z,27.97
2018-12-18T10:23:49.164Z,26.33
2018-12-18T10:26:17.451Z,26.73
2018-12-18T10:28:45.674Z,26.43
2018-12-18T10:31:13.963Z,26.50
2018-12-18T10:33:42.261Z,26.67
2018-12-18T10:36:10.467Z,25.47
2018-12-18T10:38:38.686Z,26.57
2018-12-18T10:41:06.976Z,27.23
2018-12-18T10:43:35.197Z,28.50
2018-12-18T10:46:03.565Z,27.07
2018-12-18T10:48:31.875Z,28.13
2018-12-18T10:51:00.264Z,27.83
2018-12-18T10:53:28.555Z,26.90
2018-12-18T10:55:56.930Z,27.13
2018-12-18T10:58:25.183Z,27.30
2018-12-18T11:00:58.631Z,27.23
2018-12-18T11:03:26.878Z,27.07
2018-12-18T11:05:55.096Z,27.60
2018-12-18T11:08:23.314Z,25.83
2018-12-18T11:10:51.547Z,28.27
2018-12-18T11:13:19.916Z,27.13
2018-12-18T11:15:48.230Z,25.83
2018-12-18T11:18:16.711Z,28.30
2018-12-18T11:20:44.943Z,26.37
2018-12-18T11:23:13.235Z,25.77
2018-12-18T11:25:41.454Z,26.67
2018-12-18T11:28:09.742Z,25.70
2018-12-18T11:30:37.959Z,25.53
2018-12-18T11:33:06.159Z,26.33
2018-12-18T11:35:34.382Z,24.37
2018-12-18T11:38:02.586Z,24.30
2018-12-18T11:40:30.890Z,27.33
2018-12-18T11:42:59.103Z,26.93
2018-12-18T11:45:27.326Z,26.47
2018-12-18T11:47:55.538Z,25.60
2018-12-18T11:50:23.761Z,25.67
2018-12-18T11:52:51.963Z,27.63
2018-12-18T11:55:20.181Z,25.17
2018-12-18T11:57:48.386Z,26.47
2018-12-18T12:00:17.595Z,26.43
2018-12-18T12:02:45.811Z,26.83
2018-12-18T12:05:14.118Z,25.67
2018-12-18T12:07:42.418Z,25.27
2018-12-18T12:10:10.649Z,26.50
2018-12-18T12:12:38.934Z,25.33
2018-12-18T12:15:07.248Z,26.20
2018-12-18T12:17:35.735Z,24.77
2018-12-18T12:20:04.125Z,26.07
2018-12-18T12:22:32.332Z,25.43
2018-12-18T12:25:00.570Z,23.37
2018-12-18T12:27:38.026Z,24.83
2018-12-18T12:30:08.125Z,23.37
2018-12-18T12:32:36.342Z,23.40
2018-12-18T12:35:05.445Z,25.17
2018-12-18T12:37:33.651Z,23.43
2018-12-18T12:40:01.884Z,24.27
2018-12-18T12:42:30.082Z,23.90
2018-12-18T12:44:58.315Z,23.67
2018-12-18T12:47:26.525Z,22.83
2018-12-18T12:49:54.750Z,24.83
2018-12-18T12:52:22.955Z,24.17
2018-12-18T12:54:51.170Z,23.73
2018-12-18T12:57:19.383Z,23.23
2018-12-18T12:59:47.618Z,23.67
2018-12-18T13:02:15.829Z,23.50
2018-12-18T13:04:44.115Z,22.90
2018-12-18T13:07:12.366Z,23.43
2018-12-18T13:09:40.575Z,22.00
2018-12-18T13:12:08.807Z,24.03
2018-12-18T13:14:37.011Z,24.03
2018-12-18T13:17:05.243Z,22.93
2018-12-18T13:19:33.442Z,23.67
2018-12-18T13:22:01.663Z,21.63
2018-12-18T13:24:29.870Z,22.43
2018-12-18T13:26:58.099Z,22.17
2018-12-18T13:29:26.391Z,22.73
2018-12-18T13:32:01.443Z,21.63
2018-12-18T13:34:29.650Z,21.17
2018-12-18T13:36:57.880Z,22.00
2018-12-18T13:39:26.084Z,22.40
2018-12-18T13:41:54.314Z,21.67
2018-12-18T13:44:22.520Z,21.47
2018-12-18T13:46:50.745Z,20.43
2018-12-18T13:49:18.963Z,22.03
2018-12-18T13:51:47.187Z,20.47
2018-12-18T13:54:15.393Z,20.67
2018-12-18T13:56:43.631Z,20.77
2018-12-18T13:59:11.833Z,20.57
2018-12-18T14:01:40.050Z,21.37
2018-12-18T14:04:08.246Z,21.43
2018-12-18T14:06:36.556Z,19.90
2018-12-18T14:09:07.972Z,21.80
2018-12-18T14:11:36.198Z,18.83
2018-12-18T14:14:04.578Z,18.47
2018-12-18T14:16:32.803Z,19.67
2018-12-18T14:19:01.102Z,20.93
2018-12-18T14:21:29.343Z,22.33
2018-12-18T14:23:57.564Z,19.70
2018-12-18T14:26:25.784Z,20.47
2018-12-18T14:28:54.027Z,20.57
2018-12-18T14:31:22.332Z,21.30
2018-12-18T14:33:50.542Z,19.23
2018-12-18T14:36:18.775Z,19.27
2018-12-18T14:38:46.988Z,18.97
2018-12-18T14:41:15.215Z,19.73
2018-12-18T14:43:43.420Z,19.00
2018-12-18T14:46:11.727Z,18.83
2018-12-18T14:48:39.938Z,17.47
2018-12-18T14:51:08.182Z,19.33
2018-12-18T14:53:36.397Z,16.47
2018-12-18T14:56:04.703Z,17.27
2018-12-18T14:58:32.916Z,18.53
2018-12-18T15:01:01.159Z,19.73
2018-12-18T15:03:29.384Z,19.97
2018-12-18T15:05:57.598Z,19.17
2018-12-18T15:08:25.927Z,18.70
2018-12-18T15:10:54.131Z,19.70
2018-12-18T15:13:22.367Z,20.93
2018-12-18T15:15:50.653Z,18.93
2018-12-18T15:18:18.879Z,19.80
2018-12-18T15:20:47.082Z,19.47
2018-12-18T15:23:15.323Z,19.43
2018-12-18T15:25:43.527Z,19.33
2018-12-18T15:28:11.762Z,20.03
2018-12-18T15:30:40.063Z,20.17
2018-12-18T15:33:08.287Z,22.40
2018-12-18T15:35:36.863Z,31.37
2018-12-18T15:38:05.109Z,27.93
2018-12-18T15:40:33.513Z,37.20
2018-12-18T15:43:01.743Z,42.83
2018-12-18T15:45:29.971Z,38.70
2018-12-18T15:47:59.141Z,36.13
2018-12-18T15:50:27.432Z,28.50
2018-12-18T15:52:55.738Z,30.93
2018-12-18T15:55:23.949Z,20.63
2018-12-18T15:57:52.211Z,20.30
2018-12-18T16:00:20.504Z,19.67
2018-12-18T16:02:48.759Z,18.93
2018-12-18T16:05:17.048Z,17.80
2018-12-18T16:07:45.331Z,18.40
2018-12-18T16:10:13.541Z,18.00
2018-12-18T16:12:41.768Z,18.73
2018-12-18T16:15:09.986Z,16.40
2018-12-18T16:17:38.227Z,17.17
2018-12-18T16:20:06.931Z,19.40
2018-12-18T16:22:35.146Z,18.77
2018-12-18T16:25:03.546Z,19.53
2018-12-18T16:27:31.754Z,22.20
2018-12-18T16:30:00.067Z,19.70
2018-12-18T16:32:28.288Z,20.03
2018-12-18T16:34:56.522Z,19.33
2018-12-18T16:37:24.735Z,18.97
2018-12-18T16:39:52.959Z,17.43
2018-12-18T16:42:21.174Z,17.73
2018-12-18T16:44:49.407Z,17.70
2018-12-18T16:47:17.663Z,19.87
2018-12-18T16:49:45.904Z,19.50
2018-12-18T16:52:14.127Z,19.03
2018-12-18T16:54:42.452Z,17.10
2018-12-18T16:57:13.299Z,17.83
2018-12-18T16:59:40.927Z,18.40
2018-12-18T17:02:09.147Z,39.70
2018-12-18T17:04:43.843Z,24.93
2018-12-18T17:07:12.075Z,33.73
2018-12-18T17:09:40.302Z,31.57
2018-12-18T17:12:08.509Z,28.97
2018-12-18T17:14:36.743Z,28.40
2018-12-18T17:17:04.951Z,29.03
2018-12-18T17:19:33.187Z,26.33
2018-12-18T17:22:01.406Z,23.63
2018-12-18T17:24:29.639Z,22.50
2018-12-18T17:26:57.855Z,18.70
2018-12-18T17:29:26.086Z,21.00
2018-12-18T17:31:54.302Z,32.40
2018-12-18T17:34:22.585Z,29.17
2018-12-18T17:36:50.800Z,33.07
2018-12-18T17:39:19.009Z,35.17
2018-12-18T17:41:47.239Z,39.77
2018-12-18T17:44:15.456Z,43.40
2018-12-18T17:46:43.691Z,35.10
2018-12-18T17:49:11.980Z,36.20
2018-12-18T17:51:40.218Z,33.70
2018-12-18T17:54:08.419Z,39.27
2018-12-18T17:56:36.722Z,38.33
2018-12-18T17:59:05.017Z,34.83
2018-12-18T18:01:33.242Z,34.90
2018-12-18T18:04:01.457Z,34.40
2018-12-18T18:06:29.699Z,28.00
2018-12-18T18:08:57.935Z,27.73
2018-12-18T18:11:26.246Z,26.83
2018-12-18T18:13:54.470Z,26.80
2018-12-18T18:16:22.783Z,26.60
2018-12-18T18:18:51.019Z,22.70
2018-12-18T18:21:19.252Z,22.80
2018-12-18T18:23:47.558Z,21.83
2018-12-18T18:26:15.975Z,23.27
2018-12-18T18:28:44.186Z,21.47
2018-12-18T18:31:12.418Z,20.47
2018-12-18T18:33:40.630Z,20.97
2018-12-18T18:36:08.870Z,20.10
2018-12-18T18:38:37.083Z,20.13
2018-12-18T18:41:05.323Z,20.17
2018-12-18T18:43:33.532Z,19.67
2018-12-18T18:46:01.770Z,19.87
2018-12-18T18:48:30.010Z,18.85
2018-12-18T18:50:58.247Z,18.60
2018-12-18T18:53:26.477Z,16.77
2018-12-18T18:55:54.707Z,18.00
2018-12-18T18:58:22.932Z,17.82
2018-12-18T19:00:51.191Z,16.42
2018-12-18T19:03:19.492Z,16.27
2018-12-18T19:05:47.711Z,18.42
2018-12-18T19:08:15.989Z,18.42
2018-12-18T19:10:44.329Z,16.65
2018-12-18T19:13:12.570Z,17.65
2018-12-18T19:15:40.796Z,17.05
2018-12-18T19:18:09.038Z,17.55
2018-12-18T19:20:37.274Z,16.25
2018-12-18T19:23:05.718Z,16.95
2018-12-18T19:25:33.950Z,18.50
2018-12-18T19:28:02.187Z,17.80
2018-12-18T19:30:30.416Z,16.55
2018-12-18T19:32:58.731Z,17.42
2018-12-18T19:35:26.949Z,16.37
2018-12-18T19:37:55.178Z,18.25
2018-12-18T19:40:23.550Z,18.02
2018-12-18T19:42:51.797Z,17.80
2018-12-18T19:45:20.033Z,18.50
2018-12-18T19:47:48.266Z,18.17
2018-12-18T19:50:16.484Z,18.45
2018-12-18T19:52:44.814Z,18.95
2018-12-18T19:55:13.187Z,18.75
2018-12-18T19:57:41.439Z,19.60
2018-12-18T20:00:10.054Z,28.23
2018-12-18T20:02:38.391Z,29.27
2018-12-18T20:05:06.696Z,21.65
2018-12-18T20:07:34.935Z,23.62
2018-12-18T20:10:03.346Z,30.25
2018-12-18T20:12:31.643Z,27.67
2018-12-18T20:14:59.887Z,27.45
2018-12-18T20:17:28.112Z,25.15
2018-12-18T20:19:56.351Z,23.45
2018-12-18T20:22:24.943Z,23.43
2018-12-18T20:24:53.179Z,22.90
2018-12-18T20:27:21.399Z,21.75
2018-12-18T20:29:50.026Z,21.80
2018-12-18T20:32:18.251Z,23.07
2018-12-18T20:34:46.571Z,24.40
2018-12-18T20:37:18.261Z,33.28
2018-12-18T20:39:45.143Z,31.90
2018-12-18T20:42:13.362Z,29.20
2018-12-18T20:44:41.607Z,30.40
2018-12-18T20:47:09.827Z,30.02
2018-12-18T20:49:38.080Z,28.15
2018-12-18T20:52:06.353Z,27.85
2018-12-18T20:54:34.743Z,24.00
2018-12-18T20:57:03.049Z,23.55
2018-12-18T20:59:31.370Z,24.92
2018-12-18T21:01:59.592Z,24.18
2018-12-18T21:04:27.947Z,28.00
2018-12-18T21:06:56.444Z,24.45
2018-12-18T21:09:24.958Z,24.27
2018-12-18T21:11:53.443Z,24.07
2018-12-18T21:14:22.001Z,24.40
2018-12-18T21:16:56.759Z,25.68
2018-12-18T21:19:26.551Z,24.10
2018-12-18T21:21:55.055Z,24.85
2018-12-18T21:24:23.679Z,22.70
2018-12-18T21:26:52.174Z,22.98
